Terminal Aerodrome Forecast
Issued by NWS

Home | Current Version | Previous Version | Text Only | Print | Product List | Glossary On
Versions: 1 2 3 4 5 6 7 8 9 10 11 12 13 14 15
000
FTUS46 KSGX 280537
TAFONT
TAF
KONT 280537Z 2806/2912 25006KT P6SM SCT010
     FM280800 VRB04KT 5SM BR OVC009
     FM281500 VRB03KT 4SM HZ BKN012
     FM281800 VRB04KT 6SM HZ SCT015
     FM282100 26011KT P6SM SKC
     FM290400 25006KT P6SM FEW010
     FM290800 VRB04KT 4SM BR SCT005=

USA.gov is the U.S. government's official web portal to all federal, state and local government web resources and services.